Portada
METAR-TAF:

METAR-TAF

Aeroports :

Aeroport de Jiddah Rei Abdulaziz

Jiddah, Aràbia Saudita

latitud: 21-42N, longitud: 039-11E, altitud: 15 m

Observació

L'informe es va fer fa 26 minuts, a les 23:00 UTC
Vent calma
Temperatura 28°C
Humitat 35%
Pressió 1008 hPa
Visibilitat 10 km o més
sense núvols per sota de 1500 mi sense presència de cumulonimbus.

METAR: OEJN 212300Z 00000KT CAVOK 28/11 Q1008 NOSIG

Hora: 02:26 (23:26 UTC)

Pronòstic

L'informe es va fer fa 6 hores i 26 minuts, a les 17:00 UTC
Pronòstic vàlid del 21 a les 18 UTC al 22 a les 24 UTC
Vent 6 kt del Nord
Visibilitat: 6000 m
Evolucionant progressivament
l' 22 a les 06 UTC al 22 a les 08 UTC
Vent 12 kt del Nord-Oest
Visibilitat 10 km o més
sense núvols per sota de 1500 mi sense presència de cumulonimbus.

TAF: OEJN 211700Z 2118/2224 01006KT 6000 NSC BECMG 2206/2208 32012KT CAVOK

Observacions i pronòstics meteorològics de més de 4000 aeroports (METAR i TAF).

Les estacions disponibles són els punts grocs i vermells al mapa.

Posi el ratolí al punt desitjat per veure el nom de l'estació.

Feu clic per veure les observacions i els pronòstics meteorològics.

Per canviar el mapa: feu clic els botons verds amb una creu de color negre per apropar; al botó verd amb un guió per allunyar la imatge; o en les fletxes verdes per a mapes adjacents.


METAR-TAF: